Time;durP1;ratioP1;P1;durP2;ratioP2;P2;SDS_P1;SDS_P2;PMS_P1;PMS_P2;Temp;Humidity;BMP_temperature;BMP_pressure;BME280_temperature;BME280_humidity;BME280_pressure;Samples;Min_cycle;Max_cycle;Signal;HPM_P1;HPM_P2
2023/07/16 00:02:04;;;;;;;;;;;;;;;16.57;53.06;95658.53;6321665;28;20053;-69
2023/07/16 00:05:08;;;;;;;;;;;;;;;16.60;52.80;95652.03;6323228;28;20337;-69
2023/07/16 00:08:08;;;;;;;;;;;;;;;16.64;52.88;95663.16;6323503;28;19924;-69
2023/07/16 00:11:12;;;;;;;;;;;;;;;16.64;53.25;95652.53;6323732;28;20022;-69
2023/07/16 00:14:16;;;;;;;;;;;;;;;16.66;53.13;95661.19;6305607;28;20394;-69
2023/07/16 00:17:17;;;;;;;;;;;;;;;16.68;53.63;95660.00;6305504;28;19931;-69
2023/07/16 00:20:20;;;;;;;;;;;;;;;16.74;53.33;95661.19;6323143;28;19928;-69
2023/07/16 00:23:22;;;;;;;;;;;;;;;16.81;53.48;95654.22;6322415;28;19954;-69
2023/07/16 00:26:26;;;;;;;;;;;;;;;16.86;53.70;95653.72;6322229;28;19924;-69
2023/07/16 00:29:29;;;;;;;;;;;;;;;16.91;54.07;95654.88;6322267;28;20019;-69
2023/07/16 00:32:33;;;;;;;;;;;;;;;16.96;53.29;95657.88;6322904;28;20015;-69
2023/07/16 00:35:36;;;;;;;;;;;;;;;17.00;53.72;95659.16;6322564;28;19928;-69
2023/07/16 00:38:40;;;;;;;;;;;;;;;17.06;53.41;95658.50;6322093;28;20002;-69
2023/07/16 00:41:41;;;;;;;;;;;;;;;17.12;52.87;95658.81;6321643;28;19927;-70
2023/07/16 00:44:42;;;;;;;;;;;;;;;17.16;53.60;95662.81;6322531;28;20437;-69
2023/07/16 00:47:46;;;;;;;;;;;;;;;17.21;53.24;95660.44;6303704;28;19924;-70
2023/07/16 00:50:47;;;;;;;;;;;;;;;17.26;53.08;95658.13;6322490;28;20310;-69
2023/07/16 00:53:48;;;;;;;;;;;;;;;17.31;52.89;95655.78;6321117;28;20393;-68
2023/07/16 00:56:52;;;;;;;;;;;;;;;17.38;53.21;95651.44;6322078;28;19924;-69
2023/07/16 00:59:53;;;;;;;;;;;;;;;17.48;52.30;95657.38;6321180;28;20297;-69
2023/07/16 01:02:54;;;;;;;;;;;;;;;17.56;52.95;95658.38;6320695;28;20030;-68
2023/07/16 01:05:59;;;;;;;;;;;;;;;17.66;53.11;95656.31;6321985;28;19931;-69
2023/07/16 01:09:03;;;;;;;;;;;;;;;17.76;52.99;95648.94;6321851;28;19966;-71
2023/07/16 01:12:04;;;;;;;;;;;;;;;17.87;52.78;95650.44;6320659;28;19931;-69
2023/07/16 01:15:07;;;;;;;;;;;;;;;17.98;53.18;95657.19;6321222;28;20430;-70
2023/07/16 01:18:08;;;;;;;;;;;;;;;18.04;52.86;95653.84;6321310;28;19931;-69
2023/07/16 01:21:09;;;;;;;;;;;;;;;18.13;52.60;95655.44;6320413;28;19924;-70
2023/07/16 01:24:29;;;;;;;;;;;;;;;18.20;52.63;95651.03;6320940;28;20638;-69
2023/07/16 01:28:03;;;;;;;;;;;;;;;18.31;51.49;95650.63;6303109;28;19995;-68
2023/07/16 01:31:08;;;;;;;;;;;;;;;18.43;52.18;95644.91;6266432;28;19998;-70
2023/07/16 01:34:13;;;;;;;;;;;;;;;18.53;52.02;95656.16;6321040;28;20027;-71
2023/07/16 01:37:15;;;;;;;;;;;;;;;18.63;51.90;95652.25;6321216;28;20007;-70
2023/07/16 01:40:16;;;;;;;;;;;;;;;18.75;51.56;95652.66;6320029;28;20063;-69
2023/07/16 01:43:22;;;;;;;;;;;;;;;18.84;51.43;95648.91;6320974;28;19924;-70
2023/07/16 01:46:25;;;;;;;;;;;;;;;18.94;51.00;95647.81;6319504;28;19923;-69
2023/07/16 01:49:29;;;;;;;;;;;;;;;19.02;51.13;95642.41;6320336;28;19924;-71
2023/07/16 01:52:32;;;;;;;;;;;;;;;19.12;50.98;95642.97;6320099;28;20009;-68
2023/07/16 01:55:40;;;;;;;;;;;;;;;19.25;50.69;95655.69;6320582;28;19924;-69
2023/07/16 01:58:45;;;;;;;;;;;;;;;19.34;50.26;95640.44;6320812;28;19928;-68
2023/07/16 02:01:48;;;;;;;;;;;;;;;19.39;50.17;95640.69;6319656;28;19931;-70
2023/07/16 02:04:51;;;;;;;;;;;;;;;19.42;50.70;95634.97;6320745;28;20015;-71
2023/07/16 02:07:54;;;;;;;;;;;;;;;19.44;50.22;95638.28;6320526;28;19924;-69
2023/07/16 02:11:01;;;;;;;;;;;;;;;19.46;49.94;95631.78;6302948;28;19931;-69
2023/07/16 02:14:02;;;;;;;;;;;;;;;19.43;50.78;95636.66;6320395;28;20514;-69
2023/07/16 02:17:07;;;;;;;;;;;;;;;19.36;50.46;95625.06;6320254;28;19924;-69
2023/07/16 02:20:11;;;;;;;;;;;;;;;19.32;51.31;95631.78;6302790;28;19924;-69
2023/07/16 02:23:15;;;;;;;;;;;;;;;19.31;50.97;95638.13;6319747;28;20385;-69
2023/07/16 02:26:18;;;;;;;;;;;;;;;19.34;51.02;95632.44;6320338;28;20323;-69
2023/07/16 02:29:20;;;;;;;;;;;;;;;19.42;50.30;95630.50;6301943;28;20021;-69
2023/07/16 02:32:27;;;;;;;;;;;;;;;19.49;51.04;95630.56;6302718;28;19924;-69
2023/07/16 02:35:31;;;;;;;;;;;;;;;19.55;50.72;95640.50;6319927;28;20017;-69
2023/07/16 02:38:33;;;;;;;;;;;;;;;19.64;51.09;95644.72;6320092;28;20328;-70
2023/07/16 02:41:34;;;;;;;;;;;;;;;19.71;50.61;95643.00;6301272;28;20026;-69
2023/07/16 02:44:41;;;;;;;;;;;;;;;19.85;50.85;95651.19;6319992;28;19924;-68
2023/07/16 02:47:42;;;;;;;;;;;;;;;19.99;50.43;95647.66;6319475;28;20016;-69
2023/07/16 02:50:46;;;;;;;;;;;;;;;20.12;50.57;95650.44;6319303;28;19989;-69
2023/07/16 02:53:47;;;;;;;;;;;;;;;20.21;49.76;95645.81;6319293;28;19924;-70
2023/07/16 02:56:50;;;;;;;;;;;;;;;20.37;49.71;95650.09;6302263;28;20401;-69
2023/07/16 02:59:51;;;;;;;;;;;;;;;20.55;49.79;95658.53;6319308;28;19939;-69
2023/07/16 03:02:55;;;;;;;;;;;;;;;20.75;49.61;95658.72;6301895;28;19924;-70
2023/07/16 03:05:57;;;;;;;;;;;;;;;20.95;48.84;95653.53;6319855;28;20078;-70
2023/07/16 03:09:00;;;;;;;;;;;;;;;21.17;48.91;95650.81;6319593;28;19924;-69
2023/07/16 03:12:01;;;;;;;;;;;;;;;21.35;48.56;95659.16;6319065;28;19930;-70
2023/07/16 03:15:05;;;;;;;;;;;;;;;21.48;48.43;95658.44;6319582;28;19920;-70
2023/07/16 03:18:06;;;;;;;;;;;;;;;21.60;48.58;95664.06;6318954;28;19924;-69
2023/07/16 03:21:12;;;;;;;;;;;;;;;21.71;48.28;95647.44;6301038;28;19924;-68
2023/07/16 03:24:13;;;;;;;;;;;;;;;21.75;48.52;95648.72;6318525;28;19924;-69
2023/07/16 03:27:13;;;;;;;;;;;;;;;21.68;48.62;95653.19;6318265;28;20420;-68
2023/07/16 03:30:17;;;;;;;;;;;;;;;21.61;48.56;95653.16;6319325;28;20228;-70
2023/07/16 03:33:18;;;;;;;;;;;;;;;21.51;48.84;95658.91;6300879;28;19924;-69
2023/07/16 03:36:23;;;;;;;;;;;;;;;21.42;48.68;95664.59;6321950;28;19924;-70
2023/07/16 03:39:27;;;;;;;;;;;;;;;21.33;49.04;95658.53;6324225;28;20337;-70
2023/07/16 03:42:30;;;;;;;;;;;;;;;21.21;49.21;95673.47;6324013;28;19931;-69
2023/07/16 03:45:34;;;;;;;;;;;;;;;21.18;49.35;95679.22;6324060;28;19931;-70
2023/07/16 03:48:35;;;;;;;;;;;;;;;21.34;48.80;95680.75;6323510;28;19924;-69
2023/07/16 03:51:44;;;;;;;;;;;;;;;21.27;48.97;95680.72;6323635;28;19924;-69
2023/07/16 03:54:45;;;;;;;;;;;;;;;21.48;48.79;95682.53;6323289;28;20293;-69
2023/07/16 03:57:49;;;;;;;;;;;;;;;21.43;48.87;95683.13;6323899;28;20309;-70
2023/07/16 04:00:53;;;;;;;;;;;;;;;21.30;49.57;95688.34;6323095;28;20401;-69
2023/07/16 04:03:57;;;;;;;;;;;;;;;21.02;50.21;95681.16;6323613;28;20317;-70
2023/07/16 04:06:58;;;;;;;;;;;;;;;20.91;50.71;95678.19;6323027;28;19920;-70
2023/07/16 04:10:02;;;;;;;;;;;;;;;20.89;50.99;95686.41;6323245;28;19935;-70
2023/07/16 04:13:06;;;;;;;;;;;;;;;20.84;51.00;95680.81;6323240;28;20018;-69
2023/07/16 04:16:07;;;;;;;;;;;;;;;20.83;50.65;95682.66;6322327;28;19920;-70
2023/07/16 04:19:10;;;;;;;;;;;;;;;20.85;50.73;95674.44;6323026;28;19924;-70
2023/07/16 04:22:11;;;;;;;;;;;;;;;20.89;50.57;95681.06;6304417;28;20320;-69
2023/07/16 04:25:17;;;;;;;;;;;;;;;20.82;50.48;95670.28;6305077;28;19924;-70
2023/07/16 04:28:26;;;;;;;;;;;;;;;20.77;50.96;95671.88;6322540;28;19928;-69
2023/07/16 04:31:28;;;;;;;;;;;;;;;20.70;51.13;95668.34;6322252;28;19924;-71
2023/07/16 04:34:31;;;;;;;;;;;;;;;20.74;50.75;95674.94;6322710;28;19924;-70
2023/07/16 04:37:36;;;;;;;;;;;;;;;20.83;50.54;95681.81;6322517;28;19924;-69
2023/07/16 04:40:37;;;;;;;;;;;;;;;20.78;50.58;95676.22;6321736;28;19924;-70
2023/07/16 04:43:42;;;;;;;;;;;;;;;20.59;50.98;95677.69;6322574;28;19931;-69
2023/07/16 04:46:43;;;;;;;;;;;;;;;20.54;51.29;95678.25;6321433;28;20313;-72
2023/07/16 04:49:47;;;;;;;;;;;;;;;20.56;51.56;95686.91;6322454;28;20421;-71
2023/07/16 04:52:50;;;;;;;;;;;;;;;20.40;51.67;95679.09;6322339;28;19924;-70
2023/07/16 04:55:53;;;;;;;;;;;;;;;20.43;51.91;95678.72;6322216;28;19923;-69
2023/07/16 04:58:54;;;;;;;;;;;;;;;20.75;51.44;95668.56;6321653;28;20413;-70
2023/07/16 05:01:58;;;;;;;;;;;;;;;21.15;50.47;95674.25;6303723;28;19924;-70
2023/07/16 05:04:59;;;;;;;;;;;;;;;21.57;49.74;95672.47;6322097;28;19924;-72
2023/07/16 05:08:00;;;;;;;;;;;;;;;21.95;49.02;95673.72;6321162;28;20066;-71
2023/07/16 05:11:03;;;;;;;;;;;;;;;22.17;48.03;95673.59;6321812;28;19931;-69
2023/07/16 05:14:07;;;;;;;;;;;;;;;22.12;48.34;95676.88;6319775;28;19924;-70
2023/07/16 05:17:08;;;;;;;;;;;;;;;21.94;48.61;95671.25;6320991;28;19931;-70
2023/07/16 05:20:09;;;;;;;;;;;;;;;21.70;49.11;95675.25;6321404;28;19933;-70
2023/07/16 05:23:20;;;;;;;;;;;;;;;21.62;49.52;95670.06;6320416;28;19924;-70
2023/07/16 05:26:21;;;;;;;;;;;;;;;21.75;49.33;95672.81;6302183;28;19924;-70
2023/07/16 05:29:27;;;;;;;;;;;;;;;22.02;48.58;95680.94;6320443;28;19924;-70
2023/07/16 05:32:30;;;;;;;;;;;;;;;22.23;48.09;95674.69;6320117;28;19924;-70
2023/07/16 05:35:37;;;;;;;;;;;;;;;22.32;47.82;95676.97;6320418;28;20408;-70
2023/07/16 05:38:38;;;;;;;;;;;;;;;22.42;47.70;95680.09;6320368;28;19924;-70
2023/07/16 05:41:39;;;;;;;;;;;;;;;22.57;47.49;95677.22;6319753;28;19924;-70
2023/07/16 05:44:44;;;;;;;;;;;;;;;22.70;47.14;95684.47;6320346;28;19930;-71
2023/07/16 05:47:51;;;;;;;;;;;;;;;22.68;47.23;95685.72;6320753;28;19920;-70
2023/07/16 05:50:54;;;;;;;;;;;;;;;22.48;47.55;95680.31;6302296;28;19925;-70
2023/07/16 05:54:03;;;;;;;;;;;;;;;22.35;48.11;95679.25;6320913;28;19928;-69
2023/07/16 05:57:06;;;;;;;;;;;;;;;22.04;48.55;95689.63;6320622;28;19920;-70
2023/07/16 06:00:11;;;;;;;;;;;;;;;21.75;49.12;95680.84;6319523;28;19970;-69
2023/07/16 06:03:16;;;;;;;;;;;;;;;21.84;48.96;95679.63;6320564;28;19924;-71
2023/07/16 06:06:17;;;;;;;;;;;;;;;21.98;48.60;95684.03;6319580;28;19924;-70
2023/07/16 06:09:19;;;;;;;;;;;;;;;22.02;48.69;95691.66;6320301;28;19978;-71
2023/07/16 06:12:20;;;;;;;;;;;;;;;21.98;48.70;95697.41;6319415;28;20344;-69
2023/07/16 06:15:25;;;;;;;;;;;;;;;21.93;48.74;95697.19;6320686;28;19990;-71
2023/07/16 06:18:29;;;;;;;;;;;;;;;21.75;49.23;95696.91;6301525;28;20362;-71
2023/07/16 06:21:34;;;;;;;;;;;;;;;21.73;49.48;95698.94;6320226;28;19924;-71
2023/07/16 06:24:37;;;;;;;;;;;;;;;21.80;49.17;95699.81;6320173;28;19931;-70
2023/07/16 06:27:40;;;;;;;;;;;;;;;21.81;49.52;95700.63;6319054;28;19930;-71
2023/07/16 06:30:43;;;;;;;;;;;;;;;21.85;49.59;95700.03;6318932;28;19924;-69
2023/07/16 06:33:46;;;;;;;;;;;;;;;21.95;49.37;95703.19;6319897;28;19924;-69
2023/07/16 06:36:47;;;;;;;;;;;;;;;22.21;48.86;95696.31;6318798;28;20508;-70
2023/07/16 06:39:51;;;;;;;;;;;;;;;22.42;48.40;95698.03;6319944;28;19927;-70
2023/07/16 06:42:55;;;;;;;;;;;;;;;22.44;48.58;95693.28;6319731;28;19924;-70
2023/07/16 06:45:58;;;;;;;;;;;;;;;22.65;48.67;95692.31;6319663;28;19987;-71
2023/07/16 06:48:59;;;;;;;;;;;;;;;22.89;47.90;95698.09;6318945;28;20340;-70
2023/07/16 06:52:05;;;;;;;;;;;;;;;23.02;47.90;95698.16;6318961;28;19924;-70
2023/07/16 06:55:06;;;;;;;;;;;;;;;23.27;47.59;95701.88;6319498;28;19924;-71
2023/07/16 06:58:13;;;;;;;;;;;;;;;23.60;46.84;95698.31;6319636;28;19924;-70
2023/07/16 07:01:17;;;;;;;;;;;;;;;24.04;46.27;95694.09;6317889;28;19931;-71
2023/07/16 07:04:21;;;;;;;;;;;;;;;24.63;45.58;95695.69;6319556;28;19924;-70
2023/07/16 07:07:22;;;;;;;;;;;;;;;25.37;44.67;95692.50;6319385;28;19924;-71
2023/07/16 07:10:26;;;;;;;;;;;;;;;25.90;43.20;95692.81;6322553;28;19967;-72
2023/07/16 07:13:29;;;;;;;;;;;;;;;25.97;43.48;95692.72;6323313;28;20415;-70
2023/07/16 07:16:34;;;;;;;;;;;;;;;25.87;43.68;95695.94;6324478;28;19927;-71
2023/07/16 07:19:40;;;;;;;;;;;;;;;25.82;43.93;95692.22;6323809;28;19931;-71
2023/07/16 07:22:44;;;;;;;;;;;;;;;25.87;43.95;95698.63;6306570;28;19924;-70
2023/07/16 07:25:51;;;;;;;;;;;;;;;25.76;44.34;95693.97;6324332;28;20393;-70
2023/07/16 07:28:53;;;;;;;;;;;;;;;25.75;44.26;95697.69;6323471;28;20046;-71
2023/07/16 07:31:54;;;;;;;;;;;;;;;25.81;44.14;95685.19;6305511;28;19931;-70
2023/07/16 07:34:58;;;;;;;;;;;;;;;25.90;43.98;95690.13;6324165;28;19928;-71
2023/07/16 07:38:02;;;;;;;;;;;;;;;25.98;43.85;95692.50;6323985;28;20015;-70
2023/07/16 07:41:06;;;;;;;;;;;;;;;25.86;43.78;95691.59;6323865;28;20393;-70
2023/07/16 07:44:12;;;;;;;;;;;;;;;25.42;44.93;95688.09;6323914;28;19928;-70
2023/07/16 07:47:15;;;;;;;;;;;;;;;25.04;45.05;95688.16;6323971;28;19930;-70
2023/07/16 07:50:19;;;;;;;;;;;;;;;25.00;45.09;95687.78;6323085;28;19924;-71
2023/07/16 07:53:20;;;;;;;;;;;;;;;25.36;44.71;95688.94;6323352;28;19977;-70
2023/07/16 07:56:25;;;;;;;;;;;;;;;26.04;43.03;95684.56;6323565;28;19924;-71
2023/07/16 07:59:31;;;;;;;;;;;;;;;26.10;42.62;95683.66;6322605;28;19924;-69
2023/07/16 08:02:37;;;;;;;;;;;;;;;26.40;42.20;95683.69;6323414;28;19924;-71
2023/07/16 08:05:40;;;;;;;;;;;;;;;26.72;41.82;95681.59;6322174;28;19930;-70
2023/07/16 08:08:41;;;;;;;;;;;;;;;27.18;40.75;95688.22;6322530;28;19931;-70
2023/07/16 08:11:45;;;;;;;;;;;;;;;27.45;40.09;95685.88;6321920;28;19924;-71
2023/07/16 08:14:48;;;;;;;;;;;;;;;27.49;40.34;95686.25;6323293;28;19924;-71
2023/07/16 08:17:49;;;;;;;;;;;;;;;27.56;40.16;95689.66;6322128;28;20308;-70
2023/07/16 08:20:52;;;;;;;;;;;;;;;27.57;39.78;95693.97;6322419;28;19924;-72
2023/07/16 08:23:56;;;;;;;;;;;;;;;27.21;40.22;95685.06;6322180;28;19931;-70
2023/07/16 08:27:00;;;;;;;;;;;;;;;26.64;41.29;95684.66;6322066;28;19924;-71
2023/07/16 08:30:04;;;;;;;;;;;;;;;25.89;41.93;95683.06;6305196;28;19981;-71
2023/07/16 08:33:09;;;;;;;;;;;;;;;25.21;42.50;95681.22;6322512;28;19924;-70
2023/07/16 08:36:10;;;;;;;;;;;;;;;24.75;43.40;95686.94;6321405;28;20011;-71
2023/07/16 08:39:14;;;;;;;;;;;;;;;24.61;43.79;95681.63;6322197;28;20357;-71
2023/07/16 08:42:20;;;;;;;;;;;;;;;24.56;43.64;95686.81;6322991;28;20023;-70
2023/07/16 08:45:25;;;;;;;;;;;;;;;24.74;43.43;95685.28;6322190;28;19924;-71
2023/07/16 08:48:30;;;;;;;;;;;;;;;25.05;42.89;95693.34;6322067;28;19962;-71
2023/07/16 08:51:34;;;;;;;;;;;;;;;25.44;42.41;95687.84;6322392;28;19924;-72
2023/07/16 08:54:40;;;;;;;;;;;;;;;25.93;41.52;95692.38;6322148;28;20337;-70
2023/07/16 08:57:43;;;;;;;;;;;;;;;25.90;41.54;95684.72;6302880;28;19924;-72
2023/07/16 09:00:49;;;;;;;;;;;;;;;25.54;42.41;95683.63;6321536;28;19924;-69
2023/07/16 09:03:53;;;;;;;;;;;;;;;25.06;43.11;95678.84;6321336;28;19947;-72
2023/07/16 09:07:04;;;;;;;;;;;;;;;24.59;44.35;95674.81;6321809;28;19924;-71
2023/07/16 09:10:11;;;;;;;;;;;;;;;23.99;45.50;95669.72;6320706;28;19931;-70
2023/07/16 09:13:18;;;;;;;;;;;;;;;23.58;46.03;95675.38;6321808;28;20006;-71
2023/07/16 09:16:22;;;;;;;;;;;;;;;23.24;46.54;95675.44;6320994;28;19931;-70
2023/07/16 09:19:25;;;;;;;;;;;;;;;23.18;46.94;95672.75;6321136;28;19970;-70
2023/07/16 09:22:29;;;;;;;;;;;;;;;23.22;46.96;95677.50;6304075;28;19969;-71
2023/07/16 09:25:34;;;;;;;;;;;;;;;23.26;46.41;95677.91;6321033;28;19970;-70
2023/07/16 09:28:36;;;;;;;;;;;;;;;23.22;46.07;95680.19;6321616;28;19966;-70
2023/07/16 09:31:51;;;;;;;;;;;;;;;23.12;46.42;95676.28;6320559;28;19924;-70
2023/07/16 09:34:54;;;;;;;;;;;;;;;23.10;46.47;95668.44;6320917;28;19923;-70
2023/07/16 09:37:55;;;;;;;;;;;;;;;23.16;46.70;95672.97;6320144;28;19923;-71
2023/07/16 09:40:56;;;;;;;;;;;;;;;23.13;46.70;95673.41;6321099;28;19924;-71
2023/07/16 09:43:59;;;;;;;;;;;;;;;23.03;47.07;95670.28;6320967;28;19934;-71
2023/07/16 09:47:02;;;;;;;;;;;;;;;22.94;47.47;95671.50;6321039;28;19924;-71
2023/07/16 09:50:06;;;;;;;;;;;;;;;22.95;47.71;95660.59;6320134;28;19924;-70
2023/07/16 09:53:08;;;;;;;;;;;;;;;22.93;47.97;95648.38;6320231;28;19947;-71
2023/07/16 09:56:10;;;;;;;;;;;;;;;22.99;47.94;95656.47;6320019;28;20482;-71
2023/07/16 09:59:19;;;;;;;;;;;;;;;22.93;48.11;95651.91;6319891;28;20317;-72
2023/07/16 10:02:23;;;;;;;;;;;;;;;22.97;47.95;95641.59;6320128;28;20015;-71
2023/07/16 10:05:26;;;;;;;;;;;;;;;23.47;47.59;95636.59;6320059;28;20023;-70
2023/07/16 10:08:34;;;;;;;;;;;;;;;24.27;46.75;95636.31;6320109;28;19919;-71
2023/07/16 10:11:37;;;;;;;;;;;;;;;24.74;45.53;95626.09;6319595;28;19931;-70
2023/07/16 10:14:41;;;;;;;;;;;;;;;24.67;45.42;95646.84;6320575;28;19920;-70
2023/07/16 10:17:49;;;;;;;;;;;;;;;24.33;46.48;95641.63;6319608;28;19924;-71
2023/07/16 10:20:51;;;;;;;;;;;;;;;24.01;46.71;95643.47;6319747;28;20005;-71
2023/07/16 10:23:59;;;;;;;;;;;;;;;23.66;47.50;95646.44;6319738;28;19924;-70
2023/07/16 10:27:00;;;;;;;;;;;;;;;23.31;48.24;95649.41;6319083;28;20309;-71
2023/07/16 10:30:04;;;;;;;;;;;;;;;23.11;48.78;95640.56;6320085;28;19923;-70
2023/07/16 10:33:12;;;;;;;;;;;;;;;22.91;49.55;95634.38;6319814;28;19955;-71
2023/07/16 10:36:20;;;;;;;;;;;;;;;22.96;49.42;95629.25;6319723;28;19924;-69
2023/07/16 10:39:23;;;;;;;;;;;;;;;23.04;50.01;95624.50;6319834;28;19931;-70
2023/07/16 10:42:26;;;;;;;;;;;;;;;22.98;49.80;95627.16;6318479;28;19924;-71
2023/07/16 10:45:30;;;;;;;;;;;;;;;22.75;50.91;95633.72;6300540;28;19924;-72
2023/07/16 10:48:33;;;;;;;;;;;;;;;22.65;52.68;95625.28;6319051;28;20014;-70
2023/07/16 10:51:36;;;;;;;;;;;;;;;22.67;53.57;95631.25;6320063;28;19924;-71
2023/07/16 10:54:39;;;;;;;;;;;;;;;22.77;53.70;95626.31;6318731;28;20309;-71
2023/07/16 10:57:40;;;;;;;;;;;;;;;22.95;53.10;95632.91;6318893;28;19930;-70
2023/07/16 11:00:46;;;;;;;;;;;;;;;22.94;53.38;95623.22;6319468;28;20409;-70
2023/07/16 11:03:51;;;;;;;;;;;;;;;23.19;53.65;95618.88;6319485;28;19924;-72
2023/07/16 11:06:52;;;;;;;;;;;;;;;24.11;51.86;95616.94;6318702;28;20309;-71
2023/07/16 11:09:58;;;;;;;;;;;;;;;24.89;50.57;95623.09;6319549;28;19920;-71
2023/07/16 11:13:01;;;;;;;;;;;;;;;25.37;49.20;95625.19;6318853;28;19931;-70
2023/07/16 11:16:08;;;;;;;;;;;;;;;25.33;49.83;95619.38;6319422;28;20297;-70
2023/07/16 11:19:09;;;;;;;;;;;;;;;25.27;50.01;95614.91;6319638;28;19931;-70
2023/07/16 11:22:13;;;;;;;;;;;;;;;25.08;50.31;95608.63;6318329;28;20401;-71
2023/07/16 11:25:18;;;;;;;;;;;;;;;24.99;50.62;95613.47;6301093;28;19932;-71
2023/07/16 11:28:20;;;;;;;;;;;;;;;24.80;51.07;95599.16;6318882;28;20377;-71
2023/07/16 11:31:26;;;;;;;;;;;;;;;24.55;51.56;95607.19;6319367;28;19924;-71
2023/07/16 11:34:29;;;;;;;;;;;;;;;24.36;51.90;95606.25;6318991;28;19920;-70
2023/07/16 11:37:34;;;;;;;;;;;;;;;24.41;52.41;95602.94;6300647;28;19924;-71
2023/07/16 11:40:38;;;;;;;;;;;;;;;24.52;51.67;95602.25;6319048;28;20346;-70
2023/07/16 11:43:45;;;;;;;;;;;;;;;24.64;51.82;95573.63;6319149;28;19931;-71
2023/07/16 11:46:50;;;;;;;;;;;;;;;24.92;51.53;95588.50;6319244;28;20063;-71
2023/07/16 11:49:52;;;;;;;;;;;;;;;25.05;51.04;95611.75;6318905;28;20020;-71
2023/07/16 11:52:54;;;;;;;;;;;;;;;25.36;50.63;95594.72;6319172;28;19924;-70
2023/07/16 11:55:55;;;;;;;;;;;;;;;26.10;49.28;95609.03;6319337;28;20298;-71
2023/07/16 11:58:56;;;;;;;;;;;;;;;26.77;48.22;95616.97;6322929;28;19927;-71
2023/07/16 12:02:01;;;;;;;;;;;;;;;27.38;46.98;95635.75;6322992;28;19924;-70
2023/07/16 12:05:04;;;;;;;;;;;;;;;27.25;47.08;95626.81;6323744;28;19928;-72
2023/07/16 12:08:13;;;;;;;;;;;;;;;26.95;47.72;95626.88;6323423;28;20305;-70
2023/07/16 12:11:17;;;;;;;;;;;;;;;26.64;48.60;95628.00;6323366;28;19928;-71
2023/07/16 12:14:23;;;;;;;;;;;;;;;26.38;48.83;95615.66;6305521;28;19930;-71
2023/07/16 12:17:26;;;;;;;;;;;;;;;26.11;49.51;95601.75;6322530;28;20077;-72
2023/07/16 12:20:34;;;;;;;;;;;;;;;25.75;50.39;95606.91;6323267;28;19923;-71
2023/07/16 12:23:35;;;;;;;;;;;;;;;25.42;50.76;95585.75;6322527;28;19931;-71
2023/07/16 12:26:39;;;;;;;;;;;;;;;25.60;50.21;95567.94;6304976;28;19931;-70
2023/07/16 12:29:43;;;;;;;;;;;;;;;26.27;49.00;95579.53;6322946;28;19927;-71
2023/07/16 12:32:44;;;;;;;;;;;;;;;26.86;47.79;95579.69;6322941;28;19924;-71
2023/07/16 12:35:47;;;;;;;;;;;;;;;27.29;47.21;95582.09;6322691;28;20027;-71
2023/07/16 12:38:57;;;;;;;;;;;;;;;27.94;45.97;95574.78;6322970;28;20023;-70
2023/07/16 12:41:59;;;;;;;;;;;;;;;28.89;44.39;95586.81;6322159;28;19924;-71
2023/07/16 12:45:02;;;;;;;;;;;;;;;29.81;42.70;95582.78;6321350;28;19935;-70
2023/07/16 12:48:06;;;;;;;;;;;;;;;30.06;42.57;95589.56;6322557;28;19924;-70
2023/07/16 12:51:09;;;;;;;;;;;;;;;29.59;43.38;95587.34;6322148;28;19971;-70
2023/07/16 12:54:13;;;;;;;;;;;;;;;29.45;43.30;95587.69;6322078;28;20100;-71
2023/07/16 12:57:13;;;;;;;;;;;;;;;29.30;43.50;95560.38;6322213;28;19931;-70
2023/07/16 13:00:14;;;;;;;;;;;;;;;29.28;43.20;95551.69;6322050;28;20014;-71
2023/07/16 13:03:21;;;;;;;;;;;;;;;29.32;42.79;95556.34;6304418;28;19924;-70
2023/07/16 13:06:22;;;;;;;;;;;;;;;29.18;43.05;95578.63;6321704;28;19924;-70
2023/07/16 13:09:26;;;;;;;;;;;;;;;28.75;43.52;95590.91;6321664;28;20393;-71
2023/07/16 13:12:29;;;;;;;;;;;;;;;28.26;43.71;95595.97;6321869;28;19924;-71
2023/07/16 13:15:30;;;;;;;;;;;;;;;27.60;45.15;95561.13;6321662;28;19931;-74
2023/07/16 13:18:31;;;;;;;;;;;;;;;27.35;45.55;95560.59;6303097;28;19924;-71
2023/07/16 13:21:34;;;;;;;;;;;;;;;27.11;45.40;95557.84;6321261;28;19931;-70
2023/07/16 13:24:40;;;;;;;;;;;;;;;26.95;45.85;95545.91;6321242;28;19924;-71
2023/07/16 13:27:42;;;;;;;;;;;;;;;27.00;45.39;95543.31;6321095;28;19924;-71
2023/07/16 13:30:45;;;;;;;;;;;;;;;27.07;44.96;95537.81;6321813;28;20409;-70
2023/07/16 13:33:50;;;;;;;;;;;;;;;26.93;45.04;95523.72;6321170;28;19924;-71
2023/07/16 13:36:53;;;;;;;;;;;;;;;26.98;44.97;95533.81;6321008;28;19924;-71
2023/07/16 13:39:55;;;;;;;;;;;;;;;27.18;44.48;95533.50;6321192;28;19924;-72
2023/07/16 13:42:57;;;;;;;;;;;;;;;27.54;43.79;95546.69;6320333;28;19935;-71
2023/07/16 13:46:03;;;;;;;;;;;;;;;27.48;44.12;95554.91;6320822;28;19924;-71
2023/07/16 13:49:04;;;;;;;;;;;;;;;27.18;44.45;95547.00;6320435;28;20015;-72
2023/07/16 13:52:07;;;;;;;;;;;;;;;26.92;45.10;95557.19;6320874;28;20405;-72
2023/07/16 13:55:11;;;;;;;;;;;;;;;26.71;45.47;95547.75;6320673;28;20422;-71
2023/07/16 13:58:14;;;;;;;;;;;;;;;26.46;45.78;95557.88;6302332;28;20340;-72
2023/07/16 14:01:18;;;;;;;;;;;;;;;26.22;46.37;95547.03;6320883;28;19970;-71
2023/07/16 14:04:20;;;;;;;;;;;;;;;26.22;46.33;95568.63;6319961;28;19946;-70
2023/07/16 14:07:24;;;;;;;;;;;;;;;26.18;46.08;95559.31;6320671;28;20012;-70
2023/07/16 14:10:29;;;;;;;;;;;;;;;26.09;46.52;95533.75;6322787;28;20441;-72
2023/07/16 14:13:32;;;;;;;;;;;;;;;25.88;47.06;95519.75;6320240;28;19977;-71
2023/07/16 14:16:35;;;;;;;;;;;;;;;25.76;47.15;95530.44;6320404;28;20285;-71
2023/07/16 14:19:42;;;;;;;;;;;;;;;25.82;47.26;95528.72;6319895;28;19924;-72
2023/07/16 14:22:49;;;;;;;;;;;;;;;25.92;46.76;95537.09;6320409;28;19924;-71
2023/07/16 14:25:50;;;;;;;;;;;;;;;25.91;46.83;95532.75;6319226;28;20022;-70
2023/07/16 14:28:53;;;;;;;;;;;;;;;26.05;46.58;95551.44;6319548;28;19924;-70
2023/07/16 14:31:56;;;;;;;;;;;;;;;26.09;46.19;95531.88;6319601;28;19950;-71
2023/07/16 14:34:57;;;;;;;;;;;;;;;26.24;46.03;95565.69;6319172;28;20022;-72
2023/07/16 14:38:01;;;;;;;;;;;;;;;26.18;45.66;95553.94;6301101;28;19997;-71
2023/07/16 14:41:13;;;;;;;;;;;;;;;26.05;45.78;95567.63;6318747;28;20270;-70
2023/07/16 14:44:18;;;;;;;;;;;;;;;26.16;45.34;95564.97;6319653;28;20046;-72
2023/07/16 14:47:19;;;;;;;;;;;;;;;26.18;44.72;95583.59;6319506;28;19936;-74
2023/07/16 14:50:28;;;;;;;;;;;;;;;25.62;45.37;95571.22;6319922;28;19920;-70
2023/07/16 14:53:31;;;;;;;;;;;;;;;25.32;46.23;95569.28;6319801;28;19924;-71
2023/07/16 14:56:35;;;;;;;;;;;;;;;25.09;46.38;95554.59;6319632;28;19923;-71
2023/07/16 14:59:38;;;;;;;;;;;;;;;24.64;46.87;95546.72;6319307;28;19921;-71
2023/07/16 15:02:44;;;;;;;;;;;;;;;24.13;48.17;95536.94;6319425;28;20400;-73
2023/07/16 15:05:47;;;;;;;;;;;;;;;23.61;49.12;95563.03;6319593;28;19924;-71
2023/07/16 15:08:53;;;;;;;;;;;;;;;23.20;50.69;95576.78;6319299;28;19938;-70
2023/07/16 15:11:54;;;;;;;;;;;;;;;22.56;51.76;95602.34;6301196;28;19923;-74
2023/07/16 15:14:58;;;;;;;;;;;;;;;22.26;53.13;95597.41;6319388;28;20022;-71
2023/07/16 15:18:04;;;;;;;;;;;;;;;22.18;54.81;95594.91;6319640;28;19920;-71
2023/07/16 15:21:05;;;;;;;;;;;;;;;21.91;56.10;95599.31;6318651;28;19967;-72
2023/07/16 15:24:12;;;;;;;;;;;;;;;21.56;56.18;95620.00;6319291;28;19924;-71
2023/07/16 15:27:14;;;;;;;;;;;;;;;21.53;57.32;95610.50;6318198;28;20301;-71
2023/07/16 15:30:18;;;;;;;;;;;;;;;21.18;57.51;95605.16;6320258;28;19978;-70
2023/07/16 15:33:21;;;;;;;;;;;;;;;20.96;58.53;95607.06;6323894;28;19924;-72
2023/07/16 15:36:26;;;;;;;;;;;;;;;20.76;58.54;95606.91;6323648;28;19931;-71
2023/07/16 15:39:27;;;;;;;;;;;;;;;20.66;58.46;95600.22;6323109;28;19935;-71
2023/07/16 15:42:29;;;;;;;;;;;;;;;20.60;58.65;95612.53;6305719;28;19930;-70
2023/07/16 15:45:35;;;;;;;;;;;;;;;20.50;58.71;95601.31;6323981;28;19924;-71
2023/07/16 15:48:43;;;;;;;;;;;;;;;20.35;58.90;95612.06;6323708;28;19928;-72
2023/07/16 15:51:44;;;;;;;;;;;;;;;20.29;59.58;95620.84;6322847;28;19931;-71
2023/07/16 15:54:51;;;;;;;;;;;;;;;20.36;59.99;95619.91;6323920;28;20015;-70
2023/07/16 15:57:54;;;;;;;;;;;;;;;20.21;60.51;95623.63;6323022;28;20313;-70